Time;durP1;ratioP1;P1;durP2;ratioP2;P2;SDS_P1;SDS_P2;PMS_P1;PMS_P2;Temp;Humidity;BMP_temperature;BMP_pressure;BME280_temperature;BME280_humidity;BME280_pressure;Samples;Min_cycle;Max_cycle;Signal;HPM_P1;HPM_P2
2022/05/23 00:01:18;;;;;;;;;;;13.40;99.90;;;;;;6247901;23;19924;-69
2022/05/23 00:03:44;;;;;;;;;;;13.30;99.90;;;;;;6221581;23;19926;-69
2022/05/23 00:06:10;;;;;;;;;;;13.30;99.90;;;;;;6248500;23;19943;-70
2022/05/23 00:08:35;;;;;;;;;;;13.50;99.90;;;;;;6247007;23;19919;-71
2022/05/23 00:11:01;;;;;;;;;;;13.20;99.90;;;;;;6246471;23;20288;-69
2022/05/23 00:13:27;;;;;;;;;;;13.20;99.90;;;;;;6246627;23;19919;-70
2022/05/23 00:15:52;;;;;;;;;;;13.10;99.90;;;;;;6246542;23;19924;-70
2022/05/23 00:18:18;;;;;;;;;;;13.10;99.90;;;;;;6246762;23;19955;-70
2022/05/23 00:20:43;;;;;;;;;;;13.10;99.90;;;;;;6219677;23;19924;-70
2022/05/23 00:23:09;;;;;;;;;;;13.00;99.90;;;;;;6246322;23;20047;-69
2022/05/23 00:25:35;;;;;;;;;;;13.10;99.90;;;;;;6245997;23;19923;-68
2022/05/23 00:28:00;;;;;;;;;;;13.00;99.90;;;;;;6245815;23;20003;-70
2022/05/23 00:30:26;;;;;;;;;;;13.00;99.90;;;;;;6246682;23;19920;-69
2022/05/23 00:35:37;;;;;;;;;;;13.10;99.90;;;;;;6245960;23;20311;-69
2022/05/23 00:38:03;;;;;;;;;;;13.00;99.90;;;;;;6246122;23;20345;-70
2022/05/23 00:40:35;;;;;;;;;;;13.00;99.90;;;;;;6243963;23;19919;-68
2022/05/23 00:43:14;;;;;;;;;;;12.90;99.90;;;;;;6246130;23;19919;-69
2022/05/23 00:45:50;;;;;;;;;;;12.90;99.90;;;;;;6246162;23;20343;-69
2022/05/23 00:48:17;;;;;;;;;;;12.90;99.90;;;;;;6245861;23;20326;-69
2022/05/23 00:50:45;;;;;;;;;;;12.80;99.90;;;;;;6245714;23;19977;-70
2022/05/23 00:53:12;;;;;;;;;;;12.80;99.90;;;;;;6244451;23;19915;-70
2022/05/23 00:55:47;;;;;;;;;;;12.80;99.90;;;;;;6245317;23;19920;-69
2022/05/23 00:58:16;;;;;;;;;;;12.70;99.90;;;;;;6245874;23;19923;-69
2022/05/23 01:00:41;;;;;;;;;;;12.90;99.90;;;;;;6246435;23;19922;-69
2022/05/23 01:03:10;;;;;;;;;;;12.80;99.90;;;;;;6246424;23;19920;-69
2022/05/23 01:05:36;;;;;;;;;;;12.60;99.90;;;;;;6246297;23;20288;-69
2022/05/23 01:08:03;;;;;;;;;;;12.80;99.90;;;;;;6246023;23;19927;-70
2022/05/23 01:10:30;;;;;;;;;;;12.60;99.90;;;;;;6246195;23;19919;-70
2022/05/23 01:12:55;;;;;;;;;;;12.60;99.90;;;;;;6246125;23;20314;-68
2022/05/23 01:15:22;;;;;;;;;;;12.60;99.90;;;;;;6245820;23;19920;-68
2022/05/23 01:17:48;;;;;;;;;;;12.70;99.90;;;;;;6245823;23;19955;-69
2022/05/23 01:20:14;;;;;;;;;;;12.60;99.90;;;;;;6246078;23;19919;-69
2022/05/23 01:22:39;;;;;;;;;;;12.50;99.90;;;;;;6219012;23;20006;-68
2022/05/23 01:25:14;;;;;;;;;;;12.50;99.90;;;;;;6245797;23;19920;-70
2022/05/23 01:27:40;;;;;;;;;;;12.50;99.90;;;;;;6245495;23;20226;-72
2022/05/23 01:30:06;;;;;;;;;;;12.40;99.90;;;;;;6246098;23;19927;-68
2022/05/23 01:32:31;;;;;;;;;;;12.40;99.90;;;;;;6245879;23;19919;-70
2022/05/23 01:34:57;;;;;;;;;;;12.40;99.90;;;;;;6246285;23;19945;-69
2022/05/23 01:37:23;;;;;;;;;;;12.30;99.90;;;;;;6245409;23;19928;-68
2022/05/23 01:39:48;;;;;;;;;;;12.30;99.90;;;;;;6245724;23;20007;-69
2022/05/23 01:42:14;;;;;;;;;;;12.30;99.90;;;;;;6245566;23;19931;-71
2022/05/23 01:44:39;;;;;;;;;;;12.20;99.90;;;;;;6245758;23;19920;-69
2022/05/23 01:47:09;;;;;;;;;;;12.20;99.90;;;;;;6245749;23;19919;-69
2022/05/23 01:49:35;;;;;;;;;;;12.20;99.90;;;;;;6246869;23;19998;-70
2022/05/23 01:52:01;;;;;;;;;;;12.20;99.90;;;;;;6248096;23;19966;-69
2022/05/23 01:54:26;;;;;;;;;;;12.20;99.90;;;;;;6247641;23;19916;-69
2022/05/23 01:56:52;;;;;;;;;;;12.20;99.90;;;;;;6246501;23;19930;-69
2022/05/23 02:02:02;;;;;;;;;;;12.20;99.90;;;;;;6245988;23;19920;-70
2022/05/23 02:04:28;;;;;;;;;;;12.20;99.90;;;;;;6245855;23;20230;-69
2022/05/23 02:06:53;;;;;;;;;;;12.20;99.90;;;;;;6245956;23;19991;-69
2022/05/23 02:09:26;;;;;;;;;;;12.10;99.90;;;;;;6245752;23;20257;-69
2022/05/23 02:11:54;;;;;;;;;;;12.20;99.90;;;;;;6245875;23;19923;-69
2022/05/23 02:14:20;;;;;;;;;;;12.10;99.90;;;;;;6245481;23;19966;-70
2022/05/23 02:16:46;;;;;;;;;;;12.20;99.90;;;;;;6245975;23;19919;-69
2022/05/23 02:19:11;;;;;;;;;;;12.10;99.90;;;;;;6245302;23;20291;-70
2022/05/23 02:21:37;;;;;;;;;;;12.10;99.90;;;;;;6245687;23;19965;-68
2022/05/23 02:24:03;;;;;;;;;;;12.10;99.90;;;;;;6245802;23;19998;-69
2022/05/23 02:26:29;;;;;;;;;;;12.10;99.90;;;;;;6246114;23;19920;-69
2022/05/23 02:28:55;;;;;;;;;;;12.10;99.90;;;;;;6245807;23;19994;-69
2022/05/23 02:31:20;;;;;;;;;;;12.10;99.90;;;;;;6245276;23;19923;-71
2022/05/23 02:33:46;;;;;;;;;;;12.10;99.90;;;;;;6218655;23;19994;-71
2022/05/23 02:36:12;;;;;;;;;;;12.50;99.90;;;;;;6245505;23;19931;-72
2022/05/23 02:38:37;;;;;;;;;;;12.10;99.90;;;;;;6246007;23;20348;-69
2022/05/23 02:41:03;;;;;;;;;;;12.10;99.90;;;;;;6245846;23;19923;-69
2022/05/23 02:43:30;;;;;;;;;;;12.10;99.90;;;;;;6245986;23;19927;-68
2022/05/23 02:45:55;;;;;;;;;;;12.10;99.90;;;;;;6244852;23;20317;-69
2022/05/23 02:48:21;;;;;;;;;;;12.10;99.90;;;;;;6245121;23;20019;-68
2022/05/23 02:50:47;;;;;;;;;;;12.10;99.90;;;;;;6245778;23;19919;-69
2022/05/23 02:53:13;;;;;;;;;;;12.10;99.90;;;;;;6245714;23;19926;-70
2022/05/23 02:55:38;;;;;;;;;;;12.10;99.90;;;;;;6245888;23;19920;-70
2022/05/23 02:58:04;;;;;;;;;;;12.10;99.90;;;;;;6245809;23;19919;-69
2022/05/23 03:00:29;;;;;;;;;;;12.10;99.90;;;;;;6245380;23;19916;-69
2022/05/23 03:03:04;;;;;;;;;;;12.10;99.90;;;;;;6244946;23;19991;-69
2022/05/23 03:05:37;;;;;;;;;;;12.10;99.90;;;;;;6245268;23;20329;-69
2022/05/23 03:08:03;;;;;;;;;;;12.10;99.90;;;;;;6246897;23;19931;-69
2022/05/23 03:10:28;;;;;;;;;;;12.00;99.90;;;;;;6247732;23;19974;-69
2022/05/23 03:12:54;;;;;;;;;;;12.00;99.90;;;;;;6247584;23;20329;-70
2022/05/23 03:15:20;;;;;;;;;;;12.10;99.90;;;;;;6219307;23;19994;-70
2022/05/23 03:17:46;;;;;;;;;;;12.10;99.90;;;;;;6247250;23;20288;-68
2022/05/23 03:20:12;;;;;;;;;;;12.10;99.90;;;;;;6247366;23;19920;-69
2022/05/23 03:28:05;;;;;;;;;;;12.10;99.90;;;;;;6247326;23;20341;-69
2022/05/23 03:30:31;;;;;;;;;;;12.10;99.90;;;;;;6220697;23;19919;-69
2022/05/23 03:32:57;;;;;;;;;;;12.10;99.90;;;;;;6196654;23;19970;-69
2022/05/23 03:35:23;;;;;;;;;;;12.20;99.90;;;;;;6221208;23;19931;-69
2022/05/23 03:37:48;;;;;;;;;;;12.20;99.90;;;;;;6248875;23;19966;-67
2022/05/23 03:40:14;;;;;;;;;;;12.30;99.90;;;;;;6248033;23;19916;-67
2022/05/23 03:42:41;;;;;;;;;;;12.20;99.90;;;;;;6247034;23;19929;-70
2022/05/23 03:45:07;;;;;;;;;;;12.20;99.90;;;;;;6246799;23;19966;-69
2022/05/23 03:47:33;;;;;;;;;;;12.20;99.90;;;;;;6246558;23;19951;-69
2022/05/23 03:49:58;;;;;;;;;;;12.30;99.90;;;;;;6246746;23;19982;-69
2022/05/23 03:52:24;;;;;;;;;;;12.30;99.90;;;;;;6247087;23;19924;-69
2022/05/23 03:54:49;;;;;;;;;;;12.30;99.90;;;;;;6219942;23;19920;-69
2022/05/23 03:57:15;;;;;;;;;;;12.30;99.90;;;;;;6246324;23;19927;-67
2022/05/23 03:59:40;;;;;;;;;;;12.30;99.90;;;;;;6246561;23;19919;-67
2022/05/23 04:02:06;;;;;;;;;;;12.30;99.90;;;;;;6246674;23;19998;-69
2022/05/23 04:04:32;;;;;;;;;;;12.60;99.90;;;;;;6246681;23;20360;-68
2022/05/23 04:06:59;;;;;;;;;;;12.40;99.90;;;;;;6246656;23;20392;-68
2022/05/23 04:09:25;;;;;;;;;;;12.40;99.90;;;;;;6246647;23;19919;-68
2022/05/23 04:11:50;;;;;;;;;;;12.40;99.90;;;;;;6246816;23;19926;-69
2022/05/23 04:14:16;;;;;;;;;;;12.40;99.90;;;;;;6247004;23;19963;-69
2022/05/23 04:16:46;;;;;;;;;;;12.40;99.90;;;;;;6246926;23;20322;-68
2022/05/23 04:19:11;;;;;;;;;;;12.50;99.90;;;;;;6246223;23;19919;-69
2022/05/23 04:21:39;;;;;;;;;;;12.70;99.90;;;;;;6246204;23;20005;-68
2022/05/23 04:24:04;;;;;;;;;;;12.50;99.90;;;;;;6246754;23;19925;-69
2022/05/23 04:26:30;;;;;;;;;;;12.50;99.90;;;;;;6246507;23;19958;-69
2022/05/23 04:28:55;;;;;;;;;;;12.70;99.90;;;;;;6243743;23;19951;-69
2022/05/23 04:31:21;;;;;;;;;;;12.60;99.90;;;;;;6246668;23;20246;-69
2022/05/23 04:36:31;;;;;;;;;;;12.70;99.90;;;;;;6246167;23;19986;-69
2022/05/23 04:38:56;;;;;;;;;;;12.70;99.90;;;;;;6246441;23;20278;-69
2022/05/23 04:41:23;;;;;;;;;;;12.80;99.90;;;;;;6218890;23;19970;-69
2022/05/23 04:43:49;;;;;;;;;;;12.80;99.90;;;;;;6246495;23;19924;-69
2022/05/23 04:46:14;;;;;;;;;;;12.80;99.90;;;;;;6244772;23;19999;-69
2022/05/23 04:51:24;;;;;;;;;;;12.90;99.90;;;;;;6246254;23;20260;-69
2022/05/23 04:53:53;;;;;;;;;;;12.90;99.90;;;;;;6245817;23;19965;-69
2022/05/23 04:56:20;;;;;;;;;;;12.90;99.90;;;;;;6194037;23;19955;-69
2022/05/23 04:58:45;;;;;;;;;;;12.90;99.90;;;;;;6219438;23;20383;-69
2022/05/23 05:01:11;;;;;;;;;;;13.10;99.90;;;;;;6246410;23;19923;-69
2022/05/23 05:03:37;;;;;;;;;;;13.00;99.90;;;;;;6246233;23;19927;-69
2022/05/23 05:06:03;;;;;;;;;;;13.00;99.90;;;;;;6246318;23;20341;-69
2022/05/23 05:08:29;;;;;;;;;;;13.00;99.90;;;;;;6218457;23;19920;-69
2022/05/23 05:10:57;;;;;;;;;;;13.30;99.90;;;;;;6246244;23;19958;-69
2022/05/23 05:13:23;;;;;;;;;;;13.00;99.90;;;;;;6219064;23;20003;-69
2022/05/23 05:15:49;;;;;;;;;;;13.00;99.90;;;;;;6246282;23;19919;-70
2022/05/23 05:18:14;;;;;;;;;;;13.30;99.90;;;;;;6246351;23;19927;-69
2022/05/23 05:20:40;;;;;;;;;;;13.10;99.90;;;;;;6220877;23;20089;-70
2022/05/23 05:23:05;;;;;;;;;;;13.20;99.90;;;;;;6252859;23;19919;-69
2022/05/23 05:25:31;;;;;;;;;;;13.20;99.90;;;;;;6253507;23;19950;-69
2022/05/23 05:27:57;;;;;;;;;;;13.30;99.90;;;;;;6245962;23;19920;-70
2022/05/23 05:30:23;;;;;;;;;;;13.30;99.90;;;;;;6245918;23;19931;-69
2022/05/23 05:32:48;;;;;;;;;;;13.40;99.90;;;;;;6246109;23;19920;-68
2022/05/23 05:35:20;;;;;;;;;;;13.40;99.90;;;;;;6245871;23;19958;-69
2022/05/23 05:37:48;;;;;;;;;;;13.50;99.90;;;;;;6218214;23;19927;-69
2022/05/23 05:40:15;;;;;;;;;;;13.60;99.90;;;;;;6245758;23;19915;-69
2022/05/23 05:42:44;;;;;;;;;;;13.60;99.90;;;;;;6218866;23;19974;-69
2022/05/23 05:45:14;;;;;;;;;;;13.60;99.90;;;;;;6218761;23;19959;-68
2022/05/23 05:47:42;;;;;;;;;;;13.70;99.90;;;;;;6218692;23;19920;-69
2022/05/23 05:50:11;;;;;;;;;;;13.80;99.90;;;;;;6245697;23;19920;-68
2022/05/23 05:52:37;;;;;;;;;;;13.90;99.90;;;;;;6245881;23;19920;-70
2022/05/23 05:55:04;;;;;;;;;;;14.00;99.90;;;;;;6245658;23;20018;-71
2022/05/23 05:57:30;;;;;;;;;;;14.10;99.90;;;;;;6245652;23;19919;-69
2022/05/23 05:59:55;;;;;;;;;;;14.20;99.90;;;;;;6245746;23;20295;-69
2022/05/23 06:02:21;;;;;;;;;;;14.40;99.90;;;;;;6245331;23;19919;-69
2022/05/23 06:04:46;;;;;;;;;;;14.50;99.90;;;;;;6245776;23;19926;-69
2022/05/23 06:12:48;;;;;;;;;;;14.70;99.90;;;;;;6245418;23;19927;-68
2022/05/23 06:15:14;;;;;;;;;;;14.60;99.90;;;;;;6243979;23;20195;-69
2022/05/23 06:17:42;;;;;;;;;;;14.70;99.90;;;;;;6245537;23;19920;-68
2022/05/23 06:20:09;;;;;;;;;;;14.60;99.90;;;;;;6218394;23;20245;-69
2022/05/23 06:22:36;;;;;;;;;;;14.70;99.90;;;;;;6219389;23;19926;-73
2022/05/23 06:25:02;;;;;;;;;;;14.70;99.90;;;;;;6241923;23;19926;-70
2022/05/23 06:27:28;;;;;;;;;;;14.70;99.90;;;;;;6243830;23;19972;-71
2022/05/23 06:29:53;;;;;;;;;;;14.80;99.90;;;;;;6243556;23;19919;-72
2022/05/23 06:32:19;;;;;;;;;;;14.90;99.90;;;;;;6243125;23;19927;-70
2022/05/23 06:34:44;;;;;;;;;;;15.00;99.90;;;;;;6244102;23;19954;-71
2022/05/23 06:37:10;;;;;;;;;;;15.10;99.90;;;;;;6243419;23;19998;-71
2022/05/23 06:39:35;;;;;;;;;;;15.20;99.90;;;;;;6242280;23;20223;-70
2022/05/23 06:42:01;;;;;;;;;;;15.40;99.90;;;;;;6243872;23;20003;-70
2022/05/23 06:44:26;;;;;;;;;;;15.50;99.90;;;;;;6244620;23;19994;-72
2022/05/23 06:46:52;;;;;;;;;;;15.70;99.90;;;;;;6245457;23;19923;-67
2022/05/23 06:49:17;;;;;;;;;;;15.80;99.90;;;;;;6245773;23;19930;-71
2022/05/23 06:51:48;;;;;;;;;;;16.00;99.90;;;;;;6243311;23;19923;-71
2022/05/23 06:54:15;;;;;;;;;;;16.10;99.90;;;;;;6193473;23;19927;-70
2022/05/23 06:56:42;;;;;;;;;;;16.20;99.90;;;;;;6245780;23;19927;-71
2022/05/23 06:59:09;;;;;;;;;;;16.40;99.90;;;;;;6244374;23;19973;-70
2022/05/23 07:01:35;;;;;;;;;;;16.60;99.90;;;;;;6245355;23;20329;-71
2022/05/23 07:04:01;;;;;;;;;;;16.70;99.90;;;;;;6218063;23;19966;-70
2022/05/23 07:12:23;;;;;;;;;;;17.10;99.90;;;;;;6157277;23;19983;-75
2022/05/23 07:14:48;;;;;;;;;;;17.30;99.90;;;;;;6181740;23;19916;-68
2022/05/23 07:17:14;;;;;;;;;;;17.40;99.90;;;;;;6182694;23;19943;-70
2022/05/23 07:19:40;;;;;;;;;;;17.60;99.90;;;;;;6182007;23;20007;-71
2022/05/23 07:22:05;;;;;;;;;;;17.80;99.90;;;;;;6181257;23;20361;-70
2022/05/23 07:24:31;;;;;;;;;;;17.90;99.90;;;;;;6181908;23;20205;-73
2022/05/23 07:26:57;;;;;;;;;;;18.00;99.90;;;;;;6156138;23;19923;-71
2022/05/23 07:29:23;;;;;;;;;;;18.10;99.90;;;;;;6181346;23;19927;-67
2022/05/23 07:31:49;;;;;;;;;;;18.20;99.90;;;;;;6180620;23;19927;-71
2022/05/23 07:34:15;;;;;;;;;;;18.30;99.90;;;;;;6181579;23;19920;-69
2022/05/23 07:36:40;;;;;;;;;;;18.40;99.90;;;;;;6181364;23;20346;-69
2022/05/23 07:39:09;;;;;;;;;;;18.60;99.90;;;;;;6181558;23;19920;-68
2022/05/23 07:41:35;;;;;;;;;;;18.70;99.90;;;;;;6181470;23;20339;-67
2022/05/23 07:44:01;;;;;;;;;;;18.90;99.90;;;;;;6156973;23;19951;-67
2022/05/23 07:46:26;;;;;;;;;;;19.10;99.90;;;;;;6219439;23;19927;-65
2022/05/23 07:48:52;;;;;;;;;;;19.10;99.90;;;;;;6216275;23;19927;-69
2022/05/23 07:51:18;;;;;;;;;;;19.20;99.90;;;;;;6244454;23;19927;-74
2022/05/23 08:01:58;;;;;;;;;;;19.40;99.90;;;;;;6241803;23;19963;-66
2022/05/23 08:04:24;;;;;;;;;;;19.40;99.90;;;;;;6240906;23;19985;-69
2022/05/23 08:06:50;;;;;;;;;;;19.50;99.90;;;;;;6240631;23;19920;-71
2022/05/23 08:09:16;;;;;;;;;;;19.50;99.90;;;;;;6243073;23;19931;-69
2022/05/23 08:11:44;;;;;;;;;;;19.50;99.90;;;;;;6241734;23;19926;-67
2022/05/23 08:14:10;;;;;;;;;;;19.50;99.90;;;;;;6237843;23;19942;-66
2022/05/23 08:16:36;;;;;;;;;;;19.50;99.90;;;;;;6241055;23;19920;-68
2022/05/23 08:19:06;;;;;;;;;;;19.60;99.90;;;;;;6240918;23;19919;-69
2022/05/23 08:21:32;;;;;;;;;;;19.70;99.90;;;;;;6215761;23;19920;-67
2022/05/23 08:23:58;;;;;;;;;;;19.90;99.90;;;;;;6239193;23;19977;-68
2022/05/23 08:26:25;;;;;;;;;;;19.90;99.90;;;;;;6241270;23;19927;-67
2022/05/23 08:28:51;;;;;;;;;;;20.00;99.90;;;;;;6241373;23;19920;-68
2022/05/23 08:31:17;;;;;;;;;;;20.00;99.90;;;;;;6242874;23;19939;-68
2022/05/23 08:33:43;;;;;;;;;;;20.20;99.90;;;;;;6212498;23;20276;-69
2022/05/23 08:36:10;;;;;;;;;;;20.40;99.90;;;;;;6238761;23;19927;-70
2022/05/23 08:38:36;;;;;;;;;;;20.50;99.90;;;;;;6190279;23;19920;-67
2022/05/23 08:41:08;;;;;;;;;;;20.70;99.90;;;;;;6189900;23;20436;-67
2022/05/23 08:43:49;;;;;;;;;;;20.90;99.90;;;;;;6241547;23;20388;-69
2022/05/23 08:46:36;;;;;;;;;;;21.00;99.90;;;;;;6241363;23;19930;-66
2022/05/23 08:49:05;;;;;;;;;;;21.20;99.90;;;;;;6241504;23;19935;-68
2022/05/23 08:51:49;;;;;;;;;;;21.30;99.90;;;;;;6250700;23;20355;-66
2022/05/23 08:54:22;;;;;;;;;;;21.40;99.90;;;;;;6243121;23;19926;-66
2022/05/23 08:56:51;;;;;;;;;;;21.50;99.90;;;;;;6214907;23;19920;-67
2022/05/23 08:59:19;;;;;;;;;;;21.60;99.90;;;;;;6215528;23;20251;-69
2022/05/23 09:02:03;;;;;;;;;;;21.70;99.90;;;;;;6241861;23;20325;-66
2022/05/23 09:04:58;;;;;;;;;;;21.80;99.90;;;;;;6239668;23;19919;-73
2022/05/23 09:07:33;;;;;;;;;;;22.00;99.90;;;;;;6088281;23;19921;-68
2022/05/23 09:10:01;;;;;;;;;;;22.10;99.90;;;;;;6090145;23;19928;-70
2022/05/23 09:12:27;;;;;;;;;;;22.30;99.90;;;;;;6089060;23;19954;-67
2022/05/23 09:14:52;;;;;;;;;;;22.40;99.90;;;;;;6088508;23;19925;-66
2022/05/23 09:17:29;;;;;;;;;;;22.50;99.90;;;;;;6089373;23;19921;-71
2022/05/23 09:19:55;;;;;;;;;;;22.60;99.90;;;;;;6064407;23;20356;-71
2022/05/23 09:22:29;;;;;;;;;;;22.60;99.90;;;;;;6065283;23;19933;-71
2022/05/23 09:24:59;;;;;;;;;;;22.90;99.90;;;;;;6062717;23;19921;-71
2022/05/23 09:27:24;;;;;;;;;;;22.90;99.90;;;;;;6089181;23;20354;-73
2022/05/23 09:29:54;;;;;;;;;;;23.00;99.90;;;;;;6063685;23;19921;-73
2022/05/23 09:32:24;;;;;;;;;;;23.00;99.90;;;;;;6089455;23;19948;-67
2022/05/23 09:34:55;;;;;;;;;;;23.00;99.90;;;;;;6087053;23;20000;-69
2022/05/23 09:37:28;;;;;;;;;;;23.00;99.90;;;;;;6089127;23;19921;-71
2022/05/23 09:39:58;;;;;;;;;;;23.00;99.90;;;;;;6087755;23;19925;-72
2022/05/23 09:48:11;;;;;;;;;;;23.10;99.90;;;;;;6241087;23;19999;-68
2022/05/23 09:50:39;;;;;;;;;;;23.20;99.90;;;;;;6212984;23;20015;-67
2022/05/23 09:53:13;;;;;;;;;;;23.30;99.90;;;;;;6214391;23;19955;-70
2022/05/23 09:55:39;;;;;;;;;;;23.50;99.90;;;;;;6239521;23;19970;-68
2022/05/23 09:58:06;;;;;;;;;;;23.50;99.90;;;;;;6213460;23;19923;-69
2022/05/23 10:00:36;;;;;;;;;;;23.60;99.90;;;;;;6241065;23;20340;-68
2022/05/23 10:03:04;;;;;;;;;;;23.80;99.90;;;;;;6240671;23;19919;-71
2022/05/23 10:05:30;;;;;;;;;;;23.90;99.90;;;;;;6187914;23;20388;-67
2022/05/23 10:07:59;;;;;;;;;;;24.00;99.90;;;;;;6239366;23;20009;-69
2022/05/23 10:10:26;;;;;;;;;;;24.10;99.90;;;;;;6214301;23;20322;-71
2022/05/23 10:13:10;;;;;;;;;;;24.00;99.90;;;;;;6240621;23;19926;-69
2022/05/23 10:15:41;;;;;;;;;;;24.00;99.90;;;;;;6239378;23;20329;-68
2022/05/23 10:18:08;;;;;;;;;;;23.90;99.90;;;;;;6241559;23;20329;-71
2022/05/23 10:20:39;;;;;;;;;;;23.90;99.90;;;;;;6216547;23;19926;-69
2022/05/23 10:23:15;;;;;;;;;;;24.00;99.90;;;;;;6215733;23;19928;-69
2022/05/23 10:25:43;;;;;;;;;;;24.20;99.90;;;;;;6214708;23;19926;-70
2022/05/23 10:28:13;;;;;;;;;;;24.30;99.90;;;;;;6216934;23;19934;-73
2022/05/23 10:30:41;;;;;;;;;;;24.30;99.90;;;;;;6198933;23;19915;-71
2022/05/23 10:33:08;;;;;;;;;;;24.40;99.90;;;;;;6237384;23;19923;-70
2022/05/23 10:35:40;;;;;;;;;;;24.60;98.50;;;;;;6247541;23;19930;-71
2022/05/23 10:43:49;;;;;;;;;;;24.90;98.10;;;;;;6239926;23;19923;-68
2022/05/23 10:46:16;;;;;;;;;;;24.90;94.80;;;;;;6215729;23;19928;-71
2022/05/23 10:48:44;;;;;;;;;;;24.90;94.90;;;;;;6191756;23;19924;-71
2022/05/23 10:51:16;;;;;;;;;;;24.80;95.00;;;;;;6242053;23;19919;-72
2022/05/23 10:53:56;;;;;;;;;;;24.70;96.10;;;;;;6241551;23;19920;-70
2022/05/23 10:56:21;;;;;;;;;;;24.60;94.70;;;;;;6243088;23;19930;-69
2022/05/23 10:58:57;;;;;;;;;;;24.80;97.20;;;;;;6215948;23;19919;-71
2022/05/23 11:01:28;;;;;;;;;;;24.90;94.50;;;;;;6243516;23;19951;-71
2022/05/23 11:04:00;;;;;;;;;;;24.90;95.60;;;;;;6238234;23;19923;-71
2022/05/23 11:06:31;;;;;;;;;;;24.70;93.20;;;;;;6191181;23;19997;-68
2022/05/23 11:09:10;;;;;;;;;;;24.50;94.80;;;;;;6214871;23;19927;-68
2022/05/23 11:11:44;;;;;;;;;;;24.40;94.50;;;;;;6243589;23;19974;-68
2022/05/23 11:14:12;;;;;;;;;;;24.40;94.40;;;;;;6239742;23;19923;-68
2022/05/23 11:16:46;;;;;;;;;;;24.60;94.50;;;;;;6215402;23;19923;-69
2022/05/23 11:19:11;;;;;;;;;;;24.80;90.40;;;;;;6242205;23;20322;-70
2022/05/23 11:21:56;;;;;;;;;;;25.00;90.80;;;;;;6242133;23;19946;-69
2022/05/23 11:24:33;;;;;;;;;;;25.30;91.30;;;;;;6239899;23;19963;-68
2022/05/23 11:35:28;;;;;;;;;;;25.90;87.50;;;;;;6239743;23;19963;-69
2022/05/23 11:37:54;;;;;;;;;;;25.70;86.60;;;;;;6215125;23;19919;-68
2022/05/23 11:40:26;;;;;;;;;;;25.60;83.50;;;;;;6241873;23;19924;-71
2022/05/23 11:42:58;;;;;;;;;;;25.60;90.10;;;;;;6215277;23;19990;-70
2022/05/23 11:48:27;;;;;;;;;;;25.90;88.70;;;;;;6239998;23;19970;-70
2022/05/23 11:50:54;;;;;;;;;;;26.00;83.70;;;;;;6240137;23;20356;-69
2022/05/23 11:53:27;;;;;;;;;;;26.10;82.30;;;;;;6189959;23;19973;-68
2022/05/23 11:55:53;;;;;;;;;;;26.00;83.00;;;;;;6240082;23;20103;-69
2022/05/23 11:58:23;;;;;;;;;;;26.00;85.30;;;;;;6239931;23;19965;-68
2022/05/23 12:01:01;;;;;;;;;;;26.10;83.50;;;;;;6215330;23;19927;-68
2022/05/23 12:03:26;;;;;;;;;;;26.20;85.80;;;;;;6215217;23;19927;-70
2022/05/23 12:06:11;;;;;;;;;;;26.30;87.10;;;;;;6243237;23;19923;-69
2022/05/23 12:08:38;;;;;;;;;;;26.40;86.10;;;;;;6217058;23;19923;-68
2022/05/23 12:11:18;;;;;;;;;;;26.50;85.90;;;;;;6244412;23;19977;-69
2022/05/23 12:13:49;;;;;;;;;;;26.40;86.20;;;;;;6242753;23;19950;-71
2022/05/23 12:16:36;;;;;;;;;;;26.20;83.20;;;;;;6244157;23;19920;-71
2022/05/23 12:19:13;;;;;;;;;;;26.10;84.50;;;;;;6241971;23;20433;-71
2022/05/23 12:21:40;;;;;;;;;;;26.20;87.10;;;;;;6190391;23;19970;-68
2022/05/23 12:24:18;;;;;;;;;;;26.20;84.90;;;;;;6214286;23;19919;-71
2022/05/23 12:26:47;;;;;;;;;;;26.30;82.40;;;;;;6242621;23;20432;-68
2022/05/23 12:29:21;;;;;;;;;;;26.20;80.40;;;;;;6241415;23;20006;-70
2022/05/23 12:32:06;;;;;;;;;;;26.10;79.50;;;;;;6214377;23;19942;-76
2022/05/23 12:34:39;;;;;;;;;;;26.20;83.10;;;;;;6213151;23;20401;-69
2022/05/23 12:37:05;;;;;;;;;;;26.10;81.10;;;;;;6241632;23;20014;-69
2022/05/23 12:39:46;;;;;;;;;;;26.10;82.90;;;;;;6240093;23;19954;-71
2022/05/23 12:42:22;;;;;;;;;;;26.20;80.30;;;;;;6190813;23;20360;-71
2022/05/23 12:44:54;;;;;;;;;;;26.20;83.70;;;;;;6240091;23;19970;-72
2022/05/23 12:47:22;;;;;;;;;;;26.00;81.10;;;;;;6241152;23;19920;-70
2022/05/23 12:50:03;;;;;;;;;;;25.90;81.50;;;;;;6241416;23;19959;-70
2022/05/23 12:52:50;;;;;;;;;;;25.90;82.40;;;;;;6241014;23;19959;-72
2022/05/23 12:55:21;;;;;;;;;;;25.80;79.50;;;;;;6186915;23;19923;-70
2022/05/23 12:58:05;;;;;;;;;;;25.90;84.00;;;;;;6241877;23;19920;-70
2022/05/23 13:00:33;;;;;;;;;;;25.90;82.20;;;;;;6239984;23;20245;-69
2022/05/23 13:03:18;;;;;;;;;;;25.80;85.20;;;;;;6241947;23;19981;-70
2022/05/23 13:05:48;;;;;;;;;;;25.60;84.20;;;;;;6239498;23;19926;-70
2022/05/23 13:08:25;;;;;;;;;;;25.40;83.50;;;;;;6241592;23;19920;-71
2022/05/23 13:10:56;;;;;;;;;;;25.30;84.20;;;;;;6213070;23;20419;-71
2022/05/23 13:13:29;;;;;;;;;;;25.10;85.50;;;;;;6241703;23;19926;-70
2022/05/23 13:15:56;;;;;;;;;;;25.00;86.20;;;;;;6239576;23;20289;-73
2022/05/23 13:23:53;;;;;;;;;;;24.90;86.90;;;;;;6240621;23;20893;-70
2022/05/23 13:26:19;;;;;;;;;;;24.90;86.10;;;;;;6214274;23;19924;-74
2022/05/23 13:28:49;;;;;;;;;;;24.90;90.00;;;;;;6241446;23;19949;-70
2022/05/23 13:31:28;;;;;;;;;;;24.80;87.00;;;;;;6240501;23;19919;-72
2022/05/23 13:33:55;;;;;;;;;;;24.60;89.30;;;;;;6213187;23;19924;-72
2022/05/23 13:36:21;;;;;;;;;;;24.60;89.10;;;;;;6241419;23;19962;-74
2022/05/23 13:39:00;;;;;;;;;;;24.50;88.80;;;;;;6214919;23;19920;-73
2022/05/23 13:41:27;;;;;;;;;;;24.50;90.20;;;;;;6241085;23;19926;-71
2022/05/23 13:43:52;;;;;;;;;;;24.40;90.40;;;;;;6213730;23;19931;-72
2022/05/23 13:46:25;;;;;;;;;;;24.30;91.00;;;;;;6216273;23;20277;-74
2022/05/23 13:49:13;;;;;;;;;;;24.30;91.50;;;;;;6254869;23;19920;-71
2022/05/23 13:51:47;;;;;;;;;;;24.20;92.20;;;;;;6110795;23;20005;-72
2022/05/23 13:54:18;;;;;;;;;;;24.10;92.50;;;;;;6102192;23;19969;-72
2022/05/23 13:56:48;;;;;;;;;;;24.00;92.50;;;;;;6067707;23;19972;-70
2022/05/23 13:59:15;;;;;;;;;;;24.00;92.60;;;;;;6065049;23;19969;-69
2022/05/23 14:01:43;;;;;;;;;;;23.90;92.90;;;;;;6066638;23;19925;-68
2022/05/23 14:04:11;;;;;;;;;;;23.90;93.50;;;;;;6088660;23;19921;-70
2022/05/23 14:06:39;;;;;;;;;;;23.90;95.00;;;;;;6089812;23;19921;-69
2022/05/23 14:09:06;;;;;;;;;;;23.80;94.70;;;;;;6089045;23;19957;-71
2022/05/23 14:11:35;;;;;;;;;;;23.80;94.30;;;;;;6089208;23;19928;-69
2022/05/23 14:14:11;;;;;;;;;;;23.80;95.80;;;;;;6087519;23;19925;-71
2022/05/23 14:16:37;;;;;;;;;;;23.70;96.30;;;;;;6089112;23;19977;-70
2022/05/23 14:19:12;;;;;;;;;;;23.80;96.50;;;;;;6088957;23;19930;-69
2022/05/23 14:21:38;;;;;;;;;;;23.80;96.20;;;;;;6064682;23;19925;-70
2022/05/23 14:24:17;;;;;;;;;;;23.90;96.80;;;;;;6063246;23;19980;-70
2022/05/23 14:26:43;;;;;;;;;;;23.90;97.70;;;;;;6065219;23;20386;-71
2022/05/23 14:29:13;;;;;;;;;;;23.90;98.40;;;;;;6169398;23;19919;-70
2022/05/23 14:31:48;;;;;;;;;;;23.80;97.70;;;;;;6241859;23;19951;-69
2022/05/23 14:34:18;;;;;;;;;;;23.90;98.60;;;;;;6235883;23;19916;-72
2022/05/23 14:36:50;;;;;;;;;;;24.00;98.10;;;;;;6241333;23;19923;-71
2022/05/23 14:39:19;;;;;;;;;;;24.00;98.60;;;;;;6240818;23;19959;-71
2022/05/23 14:41:46;;;;;;;;;;;24.10;98.90;;;;;;6215070;23;20226;-80
2022/05/23 14:44:14;;;;;;;;;;;24.10;98.90;;;;;;6239274;23;19945;-72
2022/05/23 14:47:07;;;;;;;;;;;24.20;97.00;;;;;;6240588;23;20361;-74
2022/05/23 14:49:40;;;;;;;;;;;24.20;98.20;;;;;;6182350;23;20361;-70
2022/05/23 14:52:12;;;;;;;;;;;24.20;98.30;;;;;;6187142;23;19927;-70
2022/05/23 15:02:56;;;;;;;;;;;24.20;98.40;;;;;;6241110;23;19930;-71
2022/05/23 15:05:22;;;;;;;;;;;24.30;98.00;;;;;;6239291;23;20309;-72
2022/05/23 15:07:56;;;;;;;;;;;24.30;98.00;;;;;;6215722;23;19923;-71
2022/05/23 15:10:22;;;;;;;;;;;24.30;99.00;;;;;;6242596;23;19930;-70
2022/05/23 15:12:48;;;;;;;;;;;24.30;99.10;;;;;;6240254;23;19979;-70
2022/05/23 15:15:13;;;;;;;;;;;24.20;99.10;;;;;;6240339;23;20249;-72
2022/05/23 15:17:39;;;;;;;;;;;24.20;99.00;;;;;;6243160;23;19919;-72
2022/05/23 15:20:08;;;;;;;;;;;24.20;99.30;;;;;;6244657;23;19926;-72
2022/05/23 15:22:34;;;;;;;;;;;24.10;98.10;;;;;;6244211;23;19962;-71
2022/05/23 15:25:01;;;;;;;;;;;24.00;98.00;;;;;;6244500;23;19920;-70
2022/05/23 15:27:27;;;;;;;;;;;23.90;98.50;;;;;;6246831;23;19920;-72
2022/05/23 15:29:54;;;;;;;;;;;23.80;98.70;;;;;;6229523;23;19924;-68
2022/05/23 15:32:20;;;;;;;;;;;23.70;99.00;;;;;;6250850;23;19919;-72
2022/05/23 15:34:49;;;;;;;;;;;23.60;99.50;;;;;;6249401;23;19992;-70
2022/05/23 15:37:15;;;;;;;;;;;23.60;99.30;;;;;;6245708;23;19923;-73